Time;durP1;ratioP1;P1;durP2;ratioP2;P2;SDS_P1;SDS_P2;PMS_P1;PMS_P2;Temp;Humidity;BMP_temperature;BMP_pressure;BME280_temperature;BME280_humidity;BME280_pressure;Samples;Min_cycle;Max_cycle;Signal;HPM_P1;HPM_P2
2022/07/10 00:02:21;;;;;;;3.47;3.17;;;;;;;;;;5024819;28;20687;-67
2022/07/10 00:04:48;;;;;;;3.40;3.17;;;;;;;;;;5024371;28;20290;-69
2022/07/10 00:07:16;;;;;;;4.53;3.20;;;;;;;;;;5024733;28;20599;-66
2022/07/10 00:09:43;;;;;;;4.10;3.70;;;;;;;;;;5021987;28;20672;-66
2022/07/10 00:12:10;;;;;;;4.22;3.40;;;;;;;;;;5023829;28;20199;-68
2022/07/10 00:14:38;;;;;;;5.75;5.15;;;;;;;;;;5021010;28;20223;-69
2022/07/10 00:17:05;;;;;;;5.65;3.60;;;;;;;;;;5017466;28;20203;-70
2022/07/10 00:19:33;;;;;;;3.47;3.22;;;;;;;;;;5025527;28;20265;-67
2022/07/10 00:22:00;;;;;;;3.65;3.33;;;;;;;;;;5024562;28;20588;-68
2022/07/10 00:24:27;;;;;;;4.25;3.35;;;;;;;;;;5025156;28;20206;-69
2022/07/10 00:26:55;;;;;;;4.18;3.72;;;;;;;;;;5025505;28;20229;-67
2022/07/10 00:29:22;;;;;;;3.58;3.20;;;;;;;;;;5026478;28;20272;-68
2022/07/10 00:31:50;;;;;;;3.35;3.05;;;;;;;;;;5034288;28;20214;-67
2022/07/10 00:34:17;;;;;;;3.53;3.22;;;;;;;;;;5028851;28;20342;-67
2022/07/10 00:36:44;;;;;;;5.77;4.30;;;;;;;;;;5027678;28;20945;-68
2022/07/10 00:39:12;;;;;;;5.22;4.18;;;;;;;;;;5024607;28;20203;-67
2022/07/10 00:41:39;;;;;;;5.10;4.00;;;;;;;;;;5025258;28;20221;-68
2022/07/10 00:44:06;;;;;;;4.25;3.75;;;;;;;;;;5028518;28;20290;-68
2022/07/10 00:46:35;;;;;;;4.53;3.37;;;;;;;;;;5032119;28;20318;-67
2022/07/10 00:49:02;;;;;;;3.50;3.20;;;;;;;;;;5019926;28;20204;-67
2022/07/10 00:51:30;;;;;;;4.07;3.40;;;;;;;;;;5012995;28;20211;-68
2022/07/10 00:53:58;;;;;;;4.20;3.13;;;;;;;;;;5014576;28;20222;-68
2022/07/10 00:56:26;;;;;;;5.10;3.27;;;;;;;;;;5025967;28;21698;-68
2022/07/10 00:58:54;;;;;;;4.30;3.77;;;;;;;;;;5026867;28;20198;-67
2022/07/10 01:01:25;;;;;;;3.90;3.53;;;;;;;;;;5026083;28;20211;-66
2022/07/10 01:03:52;;;;;;;5.57;3.80;;;;;;;;;;5026493;28;20198;-68
2022/07/10 01:06:20;;;;;;;3.63;3.33;;;;;;;;;;5031012;28;20219;-69
2022/07/10 01:08:47;;;;;;;4.00;3.70;;;;;;;;;;5029676;28;20218;-68
2022/07/10 01:11:15;;;;;;;5.30;4.10;;;;;;;;;;5031642;28;20245;-65
2022/07/10 01:13:43;;;;;;;4.70;4.13;;;;;;;;;;5023374;28;20231;-66
2022/07/10 01:16:11;;;;;;;5.53;4.97;;;;;;;;;;5027474;28;20226;-66
2022/07/10 01:18:40;;;;;;;6.10;4.90;;;;;;;;;;5025527;28;20582;-68
2022/07/10 01:21:31;;;;;;;5.77;5.07;;;;;;;;;;5019601;28;20207;-69
2022/07/10 01:23:59;;;;;;;5.37;4.87;;;;;;;;;;5032950;28;20330;-69
2022/07/10 01:26:26;;;;;;;7.67;5.30;;;;;;;;;;5029089;28;20593;-69
2022/07/10 01:28:55;;;;;;;6.47;5.20;;;;;;;;;;5029948;28;20685;-68
2022/07/10 01:31:26;;;;;;;5.70;5.20;;;;;;;;;;5031600;28;20657;-67
2022/07/10 01:33:54;;;;;;;6.10;5.30;;;;;;;;;;5025879;28;20239;-68
2022/07/10 01:36:22;;;;;;;5.17;4.77;;;;;;;;;;5025356;28;20835;-68
2022/07/10 01:38:53;;;;;;;5.40;4.93;;;;;;;;;;5033391;28;20199;-67
2022/07/10 01:41:21;;;;;;;5.17;4.67;;;;;;;;;;5028336;28;20653;-66
2022/07/10 01:43:48;;;;;;;5.40;5.00;;;;;;;;;;5021797;28;20707;-68
2022/07/10 01:46:16;;;;;;;6.00;5.40;;;;;;;;;;5027069;28;20229;-67
2022/07/10 01:48:43;;;;;;;6.40;5.40;;;;;;;;;;5031579;28;20265;-68
2022/07/10 01:51:11;;;;;;;6.30;5.70;;;;;;;;;;5031370;28;20206;-68
2022/07/10 01:53:39;;;;;;;7.10;5.93;;;;;;;;;;5026147;28;20309;-68
2022/07/10 01:56:08;;;;;;;6.40;5.80;;;;;;;;;;5023297;28;20277;-69
2022/07/10 01:58:36;;;;;;;6.70;5.70;;;;;;;;;;5021596;28;20537;-67
2022/07/10 02:01:04;;;;;;;6.10;5.37;;;;;;;;;;5024151;28;20653;-66
2022/07/10 02:06:18;;;;;;;6.60;5.93;;;;;;;;;;5026679;28;21218;-67
2022/07/10 02:08:46;;;;;;;6.57;6.00;;;;;;;;;;5019623;28;20703;-68
2022/07/10 02:11:13;;;;;;;5.90;5.40;;;;;;;;;;5021703;28;20632;-68
2022/07/10 02:13:41;;;;;;;7.00;6.30;;;;;;;;;;5025699;28;20230;-67
2022/07/10 02:16:08;;;;;;;7.20;6.50;;;;;;;;;;5023723;28;20218;-68
2022/07/10 02:18:35;;;;;;;7.63;6.73;;;;;;;;;;5020631;28;20614;-68
2022/07/10 02:21:04;;;;;;;6.97;6.27;;;;;;;;;;5020299;28;20199;-68
2022/07/10 02:23:31;;;;;;;8.07;7.27;;;;;;;;;;5016175;28;20345;-69
2022/07/10 02:25:58;;;;;;;7.93;7.13;;;;;;;;;;5011293;28;20288;-69
2022/07/10 02:28:26;;;;;;;7.70;6.83;;;;;;;;;;5022634;28;20233;-66
2022/07/10 02:30:53;;;;;;;8.83;7.60;;;;;;;;;;5030290;28;20195;-66
2022/07/10 02:33:21;;;;;;;9.20;7.27;;;;;;;;;;5026925;28;20195;-66
2022/07/10 02:35:48;;;;;;;8.73;6.67;;;;;;;;;;5022179;28;20222;-68
2022/07/10 02:38:15;;;;;;;8.43;7.63;;;;;;;;;;5017268;28;20195;-68
2022/07/10 02:40:43;;;;;;;7.30;6.70;;;;;;;;;;5019105;28;20305;-69
2022/07/10 02:43:10;;;;;;;7.43;6.80;;;;;;;;;;5010660;28;20229;-68
2022/07/10 02:45:38;;;;;;;7.10;6.43;;;;;;;;;;5020070;28;20218;-66
2022/07/10 02:48:12;;;;;;;8.00;6.97;;;;;;;;;;5014858;28;20255;-69
2022/07/10 02:50:40;;;;;;;9.73;7.13;;;;;;;;;;5041127;28;20211;-66
2022/07/10 02:53:07;;;;;;;7.13;6.40;;;;;;;;;;5013650;28;20261;-68
2022/07/10 02:55:35;;;;;;;11.73;10.37;;;;;;;;;;5020846;28;20285;-65
2022/07/10 02:58:03;;;;;;;6.73;6.13;;;;;;;;;;5023394;28;20210;-67
2022/07/10 03:00:30;;;;;;;6.80;6.17;;;;;;;;;;5016892;28;20296;-67
2022/07/10 03:02:58;;;;;;;7.40;6.50;;;;;;;;;;5018494;28;20204;-68
2022/07/10 03:05:25;;;;;;;7.27;6.33;;;;;;;;;;5021682;28;20223;-67
2022/07/10 03:07:53;;;;;;;7.30;6.33;;;;;;;;;;5017115;28;20229;-66
2022/07/10 03:10:20;;;;;;;8.37;6.67;;;;;;;;;;5015405;28;20727;-68
2022/07/10 03:12:47;;;;;;;6.87;6.27;;;;;;;;;;5011913;28;20253;-67
2022/07/10 03:15:15;;;;;;;6.70;6.07;;;;;;;;;;5028585;28;20257;-67
2022/07/10 03:17:42;;;;;;;6.63;6.03;;;;;;;;;;5030455;28;20199;-67
2022/07/10 03:20:10;;;;;;;7.40;6.70;;;;;;;;;;5025390;28;20619;-67
2022/07/10 03:22:38;;;;;;;8.10;6.43;;;;;;;;;;5017789;28;20206;-68
2022/07/10 03:25:06;;;;;;;8.33;7.53;;;;;;;;;;5019880;28;20227;-68
2022/07/10 03:27:33;;;;;;;8.43;7.50;;;;;;;;;;5022061;28;20214;-66
2022/07/10 03:30:01;;;;;;;8.37;7.63;;;;;;;;;;5022255;28;20634;-68
2022/07/10 03:32:28;;;;;;;10.50;7.83;;;;;;;;;;5024752;28;20210;-67
2022/07/10 03:34:56;;;;;;;8.83;8.03;;;;;;;;;;5023835;28;20238;-66
2022/07/10 03:37:23;;;;;;;8.93;7.53;;;;;;;;;;5019786;28;20673;-67
2022/07/10 03:39:50;;;;;;;9.53;8.70;;;;;;;;;;5014140;28;20195;-67
2022/07/10 03:42:18;;;;;;;11.53;10.33;;;;;;;;;;5017412;28;20230;-66
2022/07/10 03:44:45;;;;;;;10.20;9.20;;;;;;;;;;5016484;28;20205;-67
2022/07/10 03:47:13;;;;;;;11.17;9.80;;;;;;;;;;5020089;28;20249;-67
2022/07/10 03:49:41;;;;;;;11.23;9.70;;;;;;;;;;5016055;28;20218;-66
2022/07/10 03:52:08;;;;;;;10.90;9.90;;;;;;;;;;5020731;28;20215;-68
2022/07/10 03:54:36;;;;;;;10.90;9.90;;;;;;;;;;5025816;28;20295;-67
2022/07/10 03:59:50;;;;;;;12.00;10.70;;;;;;;;;;5015065;28;20198;-68
2022/07/10 04:02:17;;;;;;;11.27;10.27;;;;;;;;;;5019466;28;20199;-67
2022/07/10 04:04:45;;;;;;;11.97;10.80;;;;;;;;;;5013273;28;20219;-67
2022/07/10 04:07:12;;;;;;;12.00;9.77;;;;;;;;;;5020618;28;20203;-65
2022/07/10 04:09:40;;;;;;;11.23;10.23;;;;;;;;;;5023025;28;20237;-67
2022/07/10 04:12:07;;;;;;;12.10;10.80;;;;;;;;;;5025042;28;20218;-67
2022/07/10 04:14:35;;;;;;;12.03;11.03;;;;;;;;;;5022943;28;20603;-67
2022/07/10 04:17:02;;;;;;;14.33;11.20;;;;;;;;;;5019868;28;20499;-66
2022/07/10 04:19:30;;;;;;;12.03;10.80;;;;;;;;;;5021504;28;20214;-65
2022/07/10 04:21:57;;;;;;;13.13;11.83;;;;;;;;;;5020191;28;20203;-67
2022/07/10 04:24:24;;;;;;;12.80;11.50;;;;;;;;;;5021354;28;20307;-66
2022/07/10 04:26:52;;;;;;;12.67;11.57;;;;;;;;;;5018516;28;20227;-67
2022/07/10 04:29:19;;;;;;;12.70;11.43;;;;;;;;;;5017546;28;20726;-66
2022/07/10 04:31:46;;;;;;;12.57;11.37;;;;;;;;;;5017649;28;20265;-67
2022/07/10 04:34:14;;;;;;;12.90;10.87;;;;;;;;;;5018735;28;20235;-67
2022/07/10 04:36:41;;;;;;;12.47;11.13;;;;;;;;;;5022240;28;20234;-66
2022/07/10 04:39:08;;;;;;;12.10;10.73;;;;;;;;;;5022622;28;20619;-67
2022/07/10 04:41:36;;;;;;;13.07;11.57;;;;;;;;;;5016243;28;20337;-67
2022/07/10 04:44:03;;;;;;;12.60;11.40;;;;;;;;;;5014746;28;20576;-65
2022/07/10 04:46:31;;;;;;;13.50;12.30;;;;;;;;;;5027239;28;20223;-67
2022/07/10 04:48:58;;;;;;;13.00;11.80;;;;;;;;;;5026628;28;20207;-66
2022/07/10 04:51:25;;;;;;;13.87;12.30;;;;;;;;;;5030455;28;20203;-68
2022/07/10 04:53:53;;;;;;;14.47;12.20;;;;;;;;;;5020394;28;20224;-67
2022/07/10 04:56:20;;;;;;;12.83;11.40;;;;;;;;;;5025545;28;20226;-69
2022/07/10 04:58:48;;;;;;;12.63;11.43;;;;;;;;;;5017572;28;20229;-68
2022/07/10 05:01:19;;;;;;;12.90;11.70;;;;;;;;;;5018904;28;20221;-67
2022/07/10 05:03:47;;;;;;;13.37;12.03;;;;;;;;;;5020743;28;20203;-68
2022/07/10 05:06:15;;;;;;;13.03;11.73;;;;;;;;;;5030296;28;20238;-68
2022/07/10 05:08:42;;;;;;;12.70;11.37;;;;;;;;;;5026710;28;20206;-67
2022/07/10 05:11:10;;;;;;;12.43;11.10;;;;;;;;;;5035219;28;20206;-68
2022/07/10 05:13:38;;;;;;;12.53;11.33;;;;;;;;;;5040924;28;20214;-66
2022/07/10 05:16:06;;;;;;;12.73;10.67;;;;;;;;;;5025185;28;20227;-68
2022/07/10 05:18:33;;;;;;;11.90;10.70;;;;;;;;;;5024515;28;20660;-67
2022/07/10 05:21:01;;;;;;;11.33;10.20;;;;;;;;;;5025620;28;20211;-67
2022/07/10 05:23:28;;;;;;;11.30;10.20;;;;;;;;;;5024739;28;20195;-68
2022/07/10 05:25:55;;;;;;;10.63;9.63;;;;;;;;;;5020156;28;20277;-68
2022/07/10 05:28:23;;;;;;;11.20;10.20;;;;;;;;;;5019999;28;20236;-67
2022/07/10 05:30:50;;;;;;;11.30;10.23;;;;;;;;;;5024988;28;20222;-68
2022/07/10 05:33:18;;;;;;;11.47;10.40;;;;;;;;;;5020488;28;20207;-69
2022/07/10 05:35:45;;;;;;;11.93;10.27;;;;;;;;;;5029893;28;20712;-68
2022/07/10 05:38:13;;;;;;;13.67;11.67;;;;;;;;;;5021750;28;20207;-68
2022/07/10 05:40:41;;;;;;;11.77;10.73;;;;;;;;;;5021370;28;20211;-69
2022/07/10 05:43:09;;;;;;;11.50;10.23;;;;;;;;;;5021230;28;20253;-68
2022/07/10 05:45:37;;;;;;;16.00;13.67;;;;;;;;;;5018988;28;20226;-68
2022/07/10 05:48:05;;;;;;;12.13;11.03;;;;;;;;;;5023311;28;20207;-69
2022/07/10 05:50:32;;;;;;;13.87;10.53;;;;;;;;;;5025489;28;20206;-68
2022/07/10 05:52:59;;;;;;;13.17;10.80;;;;;;;;;;5026228;28;20206;-68
2022/07/10 05:55:27;;;;;;;9.10;8.27;;;;;;;;;;5023375;28;20249;-66
2022/07/10 05:57:55;;;;;;;11.57;9.40;;;;;;;;;;5021207;28;20285;-67
2022/07/10 06:00:22;;;;;;;12.17;9.27;;;;;;;;;;5018383;28;20199;-68
2022/07/10 06:02:50;;;;;;;13.80;10.20;;;;;;;;;;5020506;28;20607;-68
2022/07/10 06:05:17;;;;;;;8.67;7.77;;;;;;;;;;5027481;28;20234;-67
2022/07/10 06:07:45;;;;;;;10.07;7.88;;;;;;;;;;5029923;28;20218;-67
2022/07/10 06:10:13;;;;;;;9.17;7.77;;;;;;;;;;5023934;28;20272;-67
2022/07/10 06:12:40;;;;;;;7.93;7.20;;;;;;;;;;5021348;28;20211;-68
2022/07/10 06:15:07;;;;;;;7.90;6.95;;;;;;;;;;5023914;28;20250;-68
2022/07/10 06:17:35;;;;;;;7.00;6.13;;;;;;;;;;5024605;28;20203;-68
2022/07/10 06:20:03;;;;;;;9.98;7.15;;;;;;;;;;5024159;28;20561;-68
2022/07/10 06:22:31;;;;;;;11.25;6.72;;;;;;;;;;5016388;28;20211;-68
2022/07/10 06:24:59;;;;;;;7.77;6.37;;;;;;;;;;5017006;28;20270;-67
2022/07/10 06:27:27;;;;;;;7.23;6.53;;;;;;;;;;5024942;28;20203;-67
2022/07/10 06:29:54;;;;;;;7.63;6.43;;;;;;;;;;5026536;28;20214;-66
2022/07/10 06:32:22;;;;;;;7.37;6.20;;;;;;;;;;5022915;28;20353;-65
2022/07/10 06:34:49;;;;;;;8.93;6.67;;;;;;;;;;5020294;28;20284;-67
2022/07/10 06:37:17;;;;;;;9.53;7.40;;;;;;;;;;5031827;28;20289;-69
2022/07/10 06:39:45;;;;;;;9.17;8.27;;;;;;;;;;5022107;28;20214;-67
2022/07/10 06:42:13;;;;;;;8.25;7.32;;;;;;;;;;5035984;28;20199;-67
2022/07/10 06:44:41;;;;;;;7.30;6.20;;;;;;;;;;5024812;28;20609;-68
2022/07/10 06:49:55;;;;;;;9.47;6.53;;;;;;;;;;5026346;28;20199;-68
2022/07/10 06:52:22;;;;;;;9.27;6.37;;;;;;;;;;5022015;28;20195;-66
2022/07/10 06:54:51;;;;;;;6.77;5.73;;;;;;;;;;5024444;28;20248;-69
2022/07/10 06:57:19;;;;;;;6.65;5.38;;;;;;;;;;5029136;28;20245;-67
2022/07/10 06:59:47;;;;;;;7.73;4.60;;;;;;;;;;5030268;28;20673;-67
2022/07/10 07:02:14;;;;;;;7.47;5.20;;;;;;;;;;5027882;28;20210;-67
2022/07/10 07:04:44;;;;;;;5.03;4.63;;;;;;;;;;5017118;28;20207;-68
2022/07/10 07:07:11;;;;;;;5.83;4.77;;;;;;;;;;5015043;28;20204;-67
2022/07/10 07:09:39;;;;;;;4.90;4.47;;;;;;;;;;5027405;28;20199;-67
2022/07/10 07:12:07;;;;;;;5.63;4.77;;;;;;;;;;5023538;28;20198;-68
2022/07/10 07:14:34;;;;;;;4.83;4.43;;;;;;;;;;5027615;28;20249;-68
2022/07/10 07:17:11;;;;;;;7.03;4.10;;;;;;;;;;5029645;28;20302;-67
2022/07/10 07:25:11;;;;;;;7.67;4.47;;;;;;;;;;5020017;28;20701;-67
2022/07/10 07:27:39;;;;;;;4.47;4.07;;;;;;;;;;5023772;28;20228;-69
2022/07/10 07:30:08;;;;;;;6.57;3.80;;;;;;;;;;5031316;28;20206;-68
2022/07/10 07:32:35;;;;;;;4.63;3.73;;;;;;;;;;5022031;28;20203;-68
2022/07/10 07:35:03;;;;;;;4.07;3.67;;;;;;;;;;5022310;28;20242;-67
2022/07/10 07:37:37;;;;;;;3.60;3.33;;;;;;;;;;5027451;28;20203;-67
2022/07/10 07:40:08;;;;;;;4.32;3.35;;;;;;;;;;5027959;28;20269;-66
2022/07/10 07:42:36;;;;;;;3.60;2.87;;;;;;;;;;5011982;28;20880;-68
2022/07/10 07:45:04;;;;;;;3.75;3.45;;;;;;;;;;5011978;28;20237;-69
2022/07/10 07:47:32;;;;;;;3.85;3.20;;;;;;;;;;5015424;28;20211;-67
2022/07/10 07:50:03;;;;;;;4.03;3.57;;;;;;;;;;5010087;28;20265;-66
2022/07/10 07:52:31;;;;;;;6.10;3.73;;;;;;;;;;5020146;28;20306;-67
2022/07/10 07:54:58;;;;;;;6.73;3.37;;;;;;;;;;5023498;28;20264;-68
2022/07/10 07:57:26;;;;;;;6.95;4.15;;;;;;;;;;5017388;28;21139;-67
2022/07/10 07:59:53;;;;;;;4.30;3.47;;;;;;;;;;5002719;28;20268;-68
2022/07/10 08:02:21;;;;;;;5.27;4.00;;;;;;;;;;5017189;28;20208;-68
2022/07/10 08:04:49;;;;;;;5.97;3.70;;;;;;;;;;5020602;28;20289;-67
2022/07/10 08:07:17;;;;;;;5.20;3.88;;;;;;;;;;5018946;28;20603;-68
2022/07/10 08:09:44;;;;;;;3.73;3.33;;;;;;;;;;5018242;28;20394;-67
2022/07/10 08:12:11;;;;;;;5.70;3.90;;;;;;;;;;5013952;28;20202;-68
2022/07/10 08:14:39;;;;;;;5.43;3.83;;;;;;;;;;5007804;28;20206;-68
2022/07/10 08:17:06;;;;;;;4.35;3.22;;;;;;;;;;5007745;28;20284;-68
2022/07/10 08:19:34;;;;;;;5.63;3.33;;;;;;;;;;5019213;28;20646;-67
2022/07/10 08:22:02;;;;;;;3.50;3.13;;;;;;;;;;5010958;28;20364;-68
2022/07/10 08:24:30;;;;;;;5.00;3.33;;;;;;;;;;5009797;28;20207;-67
2022/07/10 08:26:57;;;;;;;4.15;3.00;;;;;;;;;;5016465;28;20218;-67
2022/07/10 08:29:24;;;;;;;3.92;3.47;;;;;;;;;;5008155;28;20208;-67
2022/07/10 08:31:52;;;;;;;4.35;2.83;;;;;;;;;;5017893;28;20215;-67
2022/07/10 08:34:19;;;;;;;2.97;2.70;;;;;;;;;;5021366;28;20206;-66
2022/07/10 08:36:47;;;;;;;3.88;2.72;;;;;;;;;;5019064;28;20238;-68
2022/07/10 08:39:20;;;;;;;5.60;2.95;;;;;;;;;;5017280;28;20207;-68
2022/07/10 08:41:51;;;;;;;4.40;3.00;;;;;;;;;;5024272;28;20238;-68
2022/07/10 08:44:19;;;;;;;3.38;3.00;;;;;;;;;;5024688;28;20669;-68
2022/07/10 08:46:46;;;;;;;4.57;2.72;;;;;;;;;;5013532;28;20242;-67
2022/07/10 08:49:16;;;;;;;2.60;2.22;;;;;;;;;;5016509;28;20207;-67
2022/07/10 08:51:52;;;;;;;6.22;2.80;;;;;;;;;;5013156;28;20207;-68
2022/07/10 08:54:21;;;;;;;3.35;2.40;;;;;;;;;;5020418;28;20211;-68
2022/07/10 08:56:48;;;;;;;3.70;2.55;;;;;;;;;;5018295;28;20727;-68
2022/07/10 08:59:17;;;;;;;3.10;2.50;;;;;;;;;;5022385;28;20210;-68
2022/07/10 09:01:44;;;;;;;3.53;2.58;;;;;;;;;;5018389;28;20235;-68
2022/07/10 09:04:18;;;;;;;7.05;3.03;;;;;;;;;;5016259;28;20210;-68
2022/07/10 09:06:46;;;;;;;4.40;2.95;;;;;;;;;;5009890;28;20305;-68
2022/07/10 09:09:14;;;;;;;3.45;2.58;;;;;;;;;;5019231;28;20235;-68
2022/07/10 09:11:44;;;;;;;3.85;2.60;;;;;;;;;;5023820;28;20202;-68
2022/07/10 09:14:14;;;;;;;2.85;2.35;;;;;;;;;;5017730;28;20210;-67
2022/07/10 09:16:59;;;;;;;2.95;2.63;;;;;;;;;;5015657;28;20226;-68
2022/07/10 09:19:28;;;;;;;4.70;2.72;;;;;;;;;;5027019;28;20216;-67
2022/07/10 09:22:15;;;;;;;2.42;2.20;;;;;;;;;;5030104;28;20202;-68
2022/07/10 09:24:44;;;;;;;2.55;2.10;;;;;;;;;;5030030;28;20264;-68
2022/07/10 09:27:14;;;;;;;4.10;2.13;;;;;;;;;;5025707;28;20219;-68
2022/07/10 09:29:47;;;;;;;2.47;2.17;;;;;;;;;;5009677;28;20211;-68
2022/07/10 09:32:18;;;;;;;3.53;2.22;;;;;;;;;;5006752;28;20212;-68
2022/07/10 09:34:49;;;;;;;2.97;2.10;;;;;;;;;;5008267;28;20393;-68
2022/07/10 09:37:30;;;;;;;5.35;2.30;;;;;;;;;;5011520;28;20344;-68
2022/07/10 09:39:59;;;;;;;3.30;2.10;;;;;;;;;;5012745;28;20297;-68
2022/07/10 09:42:31;;;;;;;4.07;2.72;;;;;;;;;;5007515;28;20257;-66
2022/07/10 09:45:15;;;;;;;4.47;2.30;;;;;;;;;;5014173;28;20260;-67
2022/07/10 09:47:56;;;;;;;2.83;2.38;;;;;;;;;;5020763;28;20221;-67
2022/07/10 09:50:27;;;;;;;2.42;2.22;;;;;;;;;;5013874;28;20257;-68
2022/07/10 09:52:59;;;;;;;3.13;2.03;;;;;;;;;;5022145;28;20207;-68
2022/07/10 09:55:30;;;;;;;2.65;2.20;;;;;;;;;;5020034;28;20226;-68
2022/07/10 09:57:59;;;;;;;2.58;2.38;;;;;;;;;;5023274;28;20211;-68
2022/07/10 10:00:28;;;;;;;4.65;2.47;;;;;;;;;;5019281;28;20250;-68
2022/07/10 10:03:00;;;;;;;3.28;2.20;;;;;;;;;;5036128;22;20231;-77
2022/07/10 10:05:38;;;;;;;3.15;2.55;;;;;;;;;;5026902;28;20213;-76
2022/07/10 10:08:12;;;;;;;2.88;2.20;;;;;;;;;;5024430;28;20222;-76
2022/07/10 10:10:51;;;;;;;7.22;2.88;;;;;;;;;;5029565;28;20195;-78
2022/07/10 10:13:22;;;;;;;2.22;2.03;;;;;;;;;;5012694;28;20773;-77
2022/07/10 10:15:50;;;;;;;3.40;2.40;;;;;;;;;;5010815;28;20254;-78
2022/07/10 10:18:27;;;;;;;4.43;2.92;;;;;;;;;;5020046;28;20288;-75
2022/07/10 10:20:55;;;;;;;3.10;2.30;;;;;;;;;;5022612;28;20233;-75
2022/07/10 10:23:24;;;;;;;3.67;2.60;;;;;;;;;;5006445;28;20920;-76
2022/07/10 10:25:55;;;;;;;3.25;2.10;;;;;;;;;;5005492;28;20257;-78
2022/07/10 10:28:26;;;;;;;5.03;2.47;;;;;;;;;;5001600;28;20283;-76
2022/07/10 10:30:58;;;;;;;3.78;2.35;;;;;;;;;;5004884;28;20666;-78
2022/07/10 10:33:31;;;;;;;3.38;2.15;;;;;;;;;;5008069;28;20215;-79
2022/07/10 10:35:59;;;;;;;2.55;2.00;;;;;;;;;;5030947;22;23826;-79
2022/07/10 10:38:54;;;;;;;4.38;2.05;;;;;;;;;;5029473;28;20217;-78
2022/07/10 10:41:24;;;;;;;3.22;2.28;;;;;;;;;;5044631;28;20238;-77
2022/07/10 10:44:17;;;;;;;3.53;2.10;;;;;;;;;;5039546;28;20256;-78
2022/07/10 10:46:54;;;;;;;5.90;4.63;;;;;;;;;;5033951;28;20843;-80
2022/07/10 10:49:25;;;;;;;2.95;2.58;;;;;;;;;;5044336;28;20296;-76
2022/07/10 10:51:58;;;;;;;3.20;2.88;;;;;;;;;;5037070;28;20202;-78
2022/07/10 10:54:26;;;;;;;5.25;2.30;;;;;;;;;;5041242;28;20256;-79
2022/07/10 10:57:12;;;;;;;2.85;2.40;;;;;;;;;;5040655;28;20317;-78
2022/07/10 10:59:45;;;;;;;5.32;2.58;;;;;;;;;;5025969;28;20287;-76
2022/07/10 11:02:25;;;;;;;2.22;1.95;;;;;;;;;;5042766;28;20618;-78
2022/07/10 11:05:19;;;;;;;2.25;2.05;;;;;;;;;;5036213;28;20201;-78
2022/07/10 11:08:03;;;;;;;3.53;2.30;;;;;;;;;;5018919;28;20198;-79
2022/07/10 11:10:31;;;;;;;1.92;1.83;;;;;;;;;;5022114;28;20217;-77
2022/07/10 11:13:09;;;;;;;2.50;1.80;;;;;;;;;;5034736;28;20213;-78
2022/07/10 11:15:38;;;;;;;3.55;1.67;;;;;;;;;;5034388;28;20274;-77
2022/07/10 11:18:15;;;;;;;2.33;1.88;;;;;;;;;;5034009;28;20511;-78
2022/07/10 11:20:46;;;;;;;1.65;1.55;;;;;;;;;;5040315;28;20263;-78
2022/07/10 11:23:32;;;;;;;2.90;1.67;;;;;;;;;;5035222;28;20213;-79
2022/07/10 11:26:21;;;;;;;3.33;1.67;;;;;;;;;;5035179;28;20243;-78
2022/07/10 11:28:53;;;;;;;2.35;1.80;;;;;;;;;;5035836;28;20281;-77
2022/07/10 11:31:22;;;;;;;1.90;1.77;;;;;;;;;;5021267;28;20716;-78
2022/07/10 11:33:53;;;;;;;2.03;1.80;;;;;;;;;;5018017;28;20333;-78
2022/07/10 11:36:33;;;;;;;2.72;1.80;;;;;;;;;;5041289;28;20268;-77
2022/07/10 11:39:07;;;;;;;5.50;2.20;;;;;;;;;;5016062;28;20576;-79
2022/07/10 11:41:42;;;;;;;3.38;2.15;;;;;;;;;;5033860;28;20237;-78
2022/07/10 11:44:15;;;;;;;2.55;1.80;;;;;;;;;;5011489;28;20281;-76
2022/07/10 11:46:44;;;;;;;3.05;1.80;;;;;;;;;;5049134;28;20230;-80
2022/07/10 11:49:14;;;;;;;1.98;1.60;;;;;;;;;;5033484;28;20212;-77
2022/07/10 11:51:42;;;;;;;3.10;1.60;;;;;;;;;;5042804;28;20213;-78
2022/07/10 11:54:12;;;;;;;3.25;1.77;;;;;;;;;;5034510;28;20241;-78
2022/07/10 11:56:43;;;;;;;4.97;1.98;;;;;;;;;;5007547;28;20227;-79
2022/07/10 11:59:11;;;;;;;3.53;1.50;;;;;;;;;;5030980;28;20198;-77
2022/07/10 12:01:43;;;;;;;2.10;1.63;;;;;;;;;;5034324;28;20696;-78
2022/07/10 12:04:11;;;;;;;2.38;1.60;;;;;;;;;;5029429;28;20841;-78
2022/07/10 12:06:41;;;;;;;2.78;1.83;;;;;;;;;;5040651;28;20233;-76
2022/07/10 12:09:13;;;;;;;2.40;1.80;;;;;;;;;;5034141;28;20228;-77
2022/07/10 12:11:41;;;;;;;3.38;1.77;;;;;;;;;;5019610;28;20242;-77
2022/07/10 12:14:10;;;;;;;3.92;1.92;;;;;;;;;;5016462;28;20247;-77
2022/07/10 12:16:38;;;;;;;1.95;1.65;;;;;;;;;;5031827;28;20238;-78
2022/07/10 12:19:07;;;;;;;2.83;1.70;;;;;;;;;;5025529;28;20205;-79
2022/07/10 12:21:34;;;;;;;3.80;1.73;;;;;;;;;;5026920;28;20230;-78
2022/07/10 12:24:02;;;;;;;3.00;1.70;;;;;;;;;;5025487;28;20206;-79
2022/07/10 12:26:37;;;;;;;2.95;1.65;;;;;;;;;;5026178;28;20222;-77
2022/07/10 12:29:04;;;;;;;1.88;1.40;;;;;;;;;;5037168;28;20955;-76
2022/07/10 12:31:33;;;;;;;3.50;1.92;;;;;;;;;;5039624;28;20678;-77
2022/07/10 12:34:02;;;;;;;1.45;1.23;;;;;;;;;;5037980;28;20857;-76
2022/07/10 12:37:05;;;;;;;2.00;1.70;;;;;;;;;;5038118;28;20756;-75
2022/07/10 12:39:32;;;;;;;2.88;1.58;;;;;;;;;;4937613;28;20236;-79
2022/07/10 12:42:06;;;;;;;2.50;2.03;;;;;;;;;;5020806;28;20285;-75
2022/07/10 12:44:34;;;;;;;1.95;1.83;;;;;;;;;;5037411;28;20332;-77
2022/07/10 12:47:03;;;;;;;2.88;1.80;;;;;;;;;;5044996;28;20230;-77
2022/07/10 12:49:30;;;;;;;2.08;1.92;;;;;;;;;;5025108;28;20206;-79
2022/07/10 12:51:58;;;;;;;3.47;2.17;;;;;;;;;;5028565;28;20285;-77
2022/07/10 12:54:39;;;;;;;2.65;1.75;;;;;;;;;;5040095;28;20938;-77
2022/07/10 12:57:06;;;;;;;10.13;5.32;;;;;;;;;;5025697;28;20704;-76
2022/07/10 12:59:35;;;;;;;6.32;2.50;;;;;;;;;;5051508;28;20229;-78
2022/07/10 13:02:18;;;;;;;4.07;2.20;;;;;;;;;;5039395;28;20216;-76
2022/07/10 13:04:53;;;;;;;4.93;3.22;;;;;;;;;;5039968;28;20585;-78
2022/07/10 13:07:21;;;;;;;1.70;1.60;;;;;;;;;;5028250;28;20308;-77
2022/07/10 13:09:50;;;;;;;2.53;1.90;;;;;;;;;;5027058;28;20278;-78
2022/07/10 13:12:17;;;;;;;8.55;7.40;;;;;;;;;;5022577;28;20202;-77
2022/07/10 13:14:45;;;;;;;2.97;1.40;;;;;;;;;;5041452;28;20213;-77
2022/07/10 13:17:12;;;;;;;1.60;1.50;;;;;;;;;;5030822;28;20592;-78
2022/07/10 13:19:39;;;;;;;1.98;1.58;;;;;;;;;;5047844;28;20233;-77
2022/07/10 13:22:06;;;;;;;1.65;1.55;;;;;;;;;;5042442;28;20203;-77
2022/07/10 13:24:34;;;;;;;3.70;1.55;;;;;;;;;;5042751;28;20289;-78
2022/07/10 13:27:01;;;;;;;3.53;1.30;;;;;;;;;;5047544;28;20272;-78
2022/07/10 13:29:28;;;;;;;1.52;1.35;;;;;;;;;;5030414;28;20305;-76
2022/07/10 13:31:55;;;;;;;3.13;1.40;;;;;;;;;;5050734;28;20241;-75
2022/07/10 13:34:23;;;;;;;2.05;1.60;;;;;;;;;;5044468;28;20306;-76
2022/07/10 13:36:51;;;;;;;2.50;1.30;;;;;;;;;;5046078;28;20229;-78
2022/07/10 13:39:18;;;;;;;3.10;1.63;;;;;;;;;;5044635;28;21831;-78
2022/07/10 13:41:45;;;;;;;3.22;1.60;;;;;;;;;;5041753;28;20294;-77
2022/07/10 13:44:12;;;;;;;2.20;1.40;;;;;;;;;;5024261;28;20241;-77
2022/07/10 13:46:42;;;;;;;5.95;1.40;;;;;;;;;;5046617;28;20226;-76
2022/07/10 13:49:09;;;;;;;2.80;1.65;;;;;;;;;;5044097;28;20217;-75
2022/07/10 13:51:37;;;;;;;2.80;1.70;;;;;;;;;;5041074;28;20234;-77
2022/07/10 13:54:04;;;;;;;3.85;1.67;;;;;;;;;;5044742;28;20229;-75
2022/07/10 13:56:32;;;;;;;5.00;1.50;;;;;;;;;;5041266;28;20245;-77
2022/07/10 13:58:59;;;;;;;2.85;1.42;;;;;;;;;;5043398;28;20281;-76
2022/07/10 14:01:26;;;;;;;4.65;2.45;;;;;;;;;;5042215;28;20774;-77
2022/07/10 14:03:54;;;;;;;3.03;1.60;;;;;;;;;;5032593;28;20267;-79
2022/07/10 14:06:21;;;;;;;1.98;1.45;;;;;;;;;;5045023;28;20214;-76
2022/07/10 14:08:48;;;;;;;2.20;1.40;;;;;;;;;;5028660;28;20922;-77
2022/07/10 14:11:17;;;;;;;3.50;1.60;;;;;;;;;;5042372;28;20201;-76
2022/07/10 14:13:45;;;;;;;2.47;1.30;;;;;;;;;;5021139;28;20297;-78
2022/07/10 14:16:12;;;;;;;2.47;1.60;;;;;;;;;;5046091;28;20794;-77
2022/07/10 14:18:41;;;;;;;2.38;1.58;;;;;;;;;;5049226;28;20828;-77
2022/07/10 14:21:11;;;;;;;3.22;1.38;;;;;;;;;;5032239;28;20194;-77
2022/07/10 14:23:41;;;;;;;3.30;1.30;;;;;;;;;;5042519;28;20345;-78
2022/07/10 14:26:09;;;;;;;3.25;1.20;;;;;;;;;;5049227;28;20404;-77
2022/07/10 14:28:36;;;;;;;3.42;2.28;;;;;;;;;;5050450;28;20206;-77
2022/07/10 14:31:04;;;;;;;1.50;1.20;;;;;;;;;;5035979;28;20555;-76
2022/07/10 14:33:32;;;;;;;6.47;1.60;;;;;;;;;;5043954;28;20213;-78
2022/07/10 14:36:03;;;;;;;2.45;1.23;;;;;;;;;;5047522;28;20260;-77
2022/07/10 14:38:31;;;;;;;2.08;1.10;;;;;;;;;;5030905;28;23710;-77
2022/07/10 14:40:59;;;;;;;3.13;1.13;;;;;;;;;;5043920;28;21249;-76
2022/07/10 14:43:27;;;;;;;2.47;1.00;;;;;;;;;;5040547;28;20244;-77
2022/07/10 14:45:55;;;;;;;1.35;1.10;;;;;;;;;;5044110;28;20244;-76
2022/07/10 14:48:30;;;;;;;3.17;1.63;;;;;;;;;;5045330;28;20596;-79
2022/07/10 14:50:58;;;;;;;3.00;1.48;;;;;;;;;;5049672;28;20234;-77
2022/07/10 14:53:26;;;;;;;1.30;1.20;;;;;;;;;;5039433;28;20209;-78
2022/07/10 14:55:53;;;;;;;2.50;1.20;;;;;;;;;;5046364;28;20279;-78
2022/07/10 14:58:20;;;;;;;3.45;1.20;;;;;;;;;;5044630;28;20634;-79
2022/07/10 15:00:47;;;;;;;1.50;0.95;;;;;;;;;;5032318;28;20655;-77
2022/07/10 15:03:17;;;;;;;2.58;1.17;;;;;;;;;;5029930;28;20202;-77
2022/07/10 15:05:44;;;;;;;3.17;1.20;;;;;;;;;;5040779;28;20230;-77